Steptoe Valley WMA, Nevada Weather observations

Data are for 10 minute period ending at time listed.
 Day   Time   Solar   Ave.   Ave.  Ave.  Vector  Max.   Baro.   Total    
  of    of     Rad.   Air    Rel.  Wind   Wind   Wind  Press.  Precip.   
Year   Day            Temp.  Hum.  Speed  Dir.   Gust                    
2026   (PST)  Kw/m2    F      %     mph   deg.    mph    mb.     in.     
-------------------------------------------------------------------------
 123    1:50   0.00   32.3    63    4.3   167     6.5   802.4    0.00 
 123    2:00   0.00   33.3    56    3.9   170     5.4   802.3    0.00 
 123    2:10   0.00   33.3    55    4.0   166     5.8   802.4    0.00 
 123    2:20   0.00   32.6    63    3.8   179     6.7   802.4    0.00 
 123    2:30   0.00   30.9    70    5.2   180     6.8   802.4    0.00 
 123    2:40   0.00   29.4    72    5.8   184     7.2   802.4    0.00 
 123    2:50   0.00   30.0    66    6.5   181     8.5   802.4    0.00 
 123    3:00   0.00   31.6    62    5.3   172     8.1   802.4    0.00 
 123    3:10   0.00   30.5    63    6.6   166     9.3   802.4    0.00 
 123    3:20   0.00   30.7    60    6.9   154     9.2   802.5    0.00 
 123    3:30   0.00   29.4    67    6.0   166     7.5   802.4    0.00 
 123    3:40   0.00   28.3    70    6.1   172     8.6   802.4    0.00 
 123    3:50   0.00   31.6    55    7.4   159     9.6   802.3    0.00 
 123    4:00   0.00   31.8    57    5.5   171     7.4   802.3    0.00 
 123    4:10   0.00   30.1    63    4.3   205     7.5   802.2    0.00 
 123    4:20   0.00   27.8    70    3.3   164     4.8   802.3    0.00 
 123    4:30   0.00   26.6    76    4.9   161     6.4   802.3    0.00 
 123    4:40   0.00   26.5    71    5.0   156     7.1   802.3    0.00 
 123    4:50   0.00   26.9    71    5.3   173     7.6   802.5    0.00 
 123    5:00   0.01   27.7    70    5.5   179     7.8   802.5    0.00 
 123    5:10   0.03   29.0    67    4.8   182     6.4   802.5    0.00 
 123    5:20   0.04   28.7    70    4.1   184     7.4   802.5    0.00 
 123    5:30   0.06   31.3    60    6.8   180     8.4   802.5    0.00 
 123    5:40   0.07   32.5    57    6.6   177     8.6   802.5    0.00 
 123    5:50   0.15   34.8    51    6.2   177     8.6   802.4    0.00 
 123    6:00   0.20   38.1    46    6.6   178     9.6   802.3    0.00 
 123    6:10   0.18   38.9    48    7.2   187     9.9   802.3    0.00 
 123    6:20   0.24   38.6    48    8.0   192    10.8   802.2    0.00 
 123    6:30   0.26   39.7    46    7.8   183     9.9   802.1    0.00 
 123    6:40   0.27   41.4    44    7.6   183     9.7   801.9    0.00 
 123    6:50   0.35   44.3    39    7.6   177    10.5   801.9    0.00 
 123    7:00   0.37   47.7    32    8.4   172    11.0   801.8    0.00 
 123    7:10   0.44   49.5    28    8.3   170    10.7   801.7    0.00 
 123    7:20   0.39   51.5    26    8.3   185    10.7   801.7    0.00 
 123    7:30   0.44   52.4    26    7.4   184    10.0   801.7    0.00 
 123    7:40   0.49   53.3    25    6.8   174     9.1   801.8    0.00 
 123    7:50   0.52   54.8    24    6.8   166     9.4   801.7    0.00 
 123    8:00   0.62   56.8    20    6.4   172     8.7   801.6    0.00 
 123    8:10   0.67   59.4    19    5.2   175     9.0   801.7    0.00 
 123    8:20   0.63   61.2    16    5.9   155     9.0   801.7    0.00 
 123    8:30   0.66   62.2    15    7.7   158    11.7   801.7    0.00 
 123    8:40   0.69   62.9    15    8.3   158    12.0   801.7    0.00 
 123    8:50   0.71   63.3    13    8.0   155    13.8   801.7    0.00 
 123    9:00   0.65   63.8    14    6.9   163    11.5   801.6    0.00 
 123    9:10   0.74   64.1    14    9.2   163    16.0   801.6    0.00 
 123    9:20   0.82   65.0    13    8.5   156    16.4   801.5    0.00 
 123    9:30   0.81   65.5    13    8.0   161    16.8   801.5    0.00 
 123    9:40   0.74   65.3    14   10.9   161    20.0   801.4    0.00 
 123    9:50   0.82   64.9    14    9.1   169    15.3   801.4    0.00 
 123   10:00   0.83   65.7    15   10.6   166    16.1   801.3    0.00 
 123   10:10   0.79   65.5    14    9.0   172    19.2   801.3    0.00 
 123   10:20   0.98   66.1    14   11.4   169    17.5   801.3    0.00 
 123   10:30   0.91   66.3    13    7.2   189    17.9   801.2    0.00 
 123   10:40   1.05   66.8    14    8.5   177    18.5   801.1    0.00 
 123   10:50   0.88   66.6    14    9.5   171    16.5   801.0    0.00 
 123   11:00   0.83   66.0    14    9.6   196    17.5   800.9    0.00 
 123   11:10   0.69   66.0    15    9.5   181    18.2   800.8    0.00 
 123   11:20   0.47   63.6    15   13.8   181    23.1   800.8    0.00 
 123   11:30   0.74   64.3    16    8.5   187    17.4   800.7    0.00 
 123   11:40   0.79   66.2    15    9.1   187    16.2   800.6    0.00 
 123   11:50   0.57   65.1    15    8.5   170    23.8   800.5    0.00 
 123   12:00   0.72   64.4    15   10.9   187    19.5   800.4    0.00 
 123   12:10   0.91   66.2    15    7.9   222    13.8   800.2    0.00 
 123   12:20   0.73   65.8    14    6.7   194    15.2   800.1    0.00 
 123   12:30   1.10   67.5    15    9.4   211    16.5   799.9    0.00 
 123   12:40   1.03   67.7    14    7.1   217    17.4   799.9    0.00 
 123   12:50   1.05   68.4    14    9.4   186    22.4   799.7    0.00 
 123   13:00   1.00   68.1    14    9.5   189    19.7   799.7    0.00 
 123   13:10   0.46   66.7    12    5.5   143    13.3   799.6    0.00 
 123   13:20   0.68   65.7    16    8.5   189    13.8   799.5    0.00 
 123   13:30   0.82   67.3    15    9.3   180    16.6   799.4    0.00 
 123   13:40   0.88   67.8    14    8.9   221    16.4   799.3    0.00 
 123   13:50   0.98   68.8    14    7.9   220    16.0   799.2    0.00 
 123   14:00   0.88   68.4    14    9.4   214    17.2   799.1    0.00 
 123   14:10   0.62   67.1    14    6.9   193    12.5   799.0    0.00 
 123   14:20   0.66   66.3    13    4.5   257     9.3   798.8    0.00 
 123   14:30   0.80   67.8    14    9.8   245    16.5   798.6    0.00 
 123   14:40   0.61   66.9    15    7.9   219    13.7   798.5    0.00 
 123   14:50   0.73   67.6    14    7.9   188    13.6   798.4    0.00 
 123   15:00   0.69   68.3    14    7.6   184    12.8   798.4    0.00 
 123   15:10   0.49   66.9    13    4.9   262     9.9   798.3    0.00 
 123   15:20   0.31   65.7    15    4.9   217    13.7   798.2    0.00 
 123   15:30   0.56   66.4    14    5.1   229    10.3   798.1    0.00 
 123   15:40   0.26   66.0    16    7.4   177    11.6   798.0    0.00 
 123   15:50   0.20   63.7    17    4.3   175     7.5   798.0    0.00 
 123   16:00   0.19   63.6    17    6.6   173     8.9   797.9    0.00 
 123   16:10   0.15   63.1    16    7.6   164    12.1   797.9    0.00 
 123   16:20   0.14   63.2    15    5.4   149    11.3   797.9    0.00 
 123   16:30   0.18   63.1    18    5.7   165     9.9   797.8    0.00 
 123   16:40   0.22   63.7    17    7.2   171    11.7   797.7    0.00 
 123   16:50   0.15   63.5    17    6.9   184    10.3   797.7    0.00 
 123   17:00   0.12   62.3    19    4.4   204     6.7   797.6    0.00 
 123   17:10   0.16   62.0    20    3.6   193     5.5   797.5    0.00 
 123   17:20   0.22   63.4    19    4.3   185     9.4   797.4    0.00 
 123   17:30   0.24   64.1    19   10.8   179    16.5   797.4    0.00 
 123   17:40   0.20   63.1    20   11.7   196    17.9   797.4    0.00 
 123   17:50   0.15   62.3    20   10.2   209    16.0   797.4    0.00 
 123   18:00   0.05   60.9    22    7.6   215    14.0   797.4    0.00 
 123   18:10   0.02   58.2    25    4.9   217     8.8   797.4    0.00 
 123   18:20   0.01   57.4    24    7.8   240    15.8   797.4    0.00 
 123   18:30   0.01   56.8    26    4.7   226     9.2   797.4    0.00 
 123   18:40   0.00   56.2    27    4.8   208    10.4   797.4    0.00 
 123   18:50   0.00   52.9    27    4.0   151     4.9   797.3    0.00 
 123   19:00   0.00   52.7    27    3.2   151     4.6   797.3    0.00 
 123   19:10   0.00   53.1    26    2.8   127     4.6   797.3    0.00 
 123   19:20   0.00   51.6    28    5.3    82     7.5   797.3    0.00 
 123   19:30   0.00   49.8    30    6.8   100     8.6   797.3    0.00 
 123   19:40   0.00   48.8    32    6.8    95     8.8   797.3    0.00 
 123   19:50   0.00   48.5    32    6.5    82     7.8   797.4    0.00 
 123   20:00   0.00   46.8    36    4.7    93     8.2   797.5    0.00 
 123   20:10   0.00   45.4    42    1.3   183     2.7   797.5    0.00 
 123   20:20   0.00   43.4    49    2.0   177     4.3   797.6    0.00 
 123   20:30   0.00   41.3    44    2.2   148     2.7   797.7    0.00 
 123   20:40   0.00   43.1    47    2.2   176     4.2   797.8    0.00 
 123   20:50   0.00   41.8    46    0.9   128     2.3   797.8    0.00 
 123   21:00   0.00   43.7    44    2.3   152     3.2   797.8    0.00 
 123   21:10   0.00   43.9    49    1.3   166     4.3   797.8    0.00 
 123   21:20   0.00   43.1    55    0.7   287     3.0   797.8    0.00 
 123   21:30   0.00   42.6    53    0.6    44     1.9   797.7    0.00 
 123   21:40   0.00   43.1    53    2.0   164     5.6   797.7    0.00 
 123   21:50   0.00   46.7    37    6.7   140     9.7   797.7    0.00 
 123   22:00   0.00   48.0    36    4.7   151     6.1   797.8    0.00 
 123   22:10   0.00   47.5    36    4.7   146     7.6   797.8    0.00 
 123   22:20   0.00   46.8    38    3.1   138     6.9   797.8    0.00 
 123   22:30   0.00   46.2    40    0.7   140     2.0   797.8    0.00 
 123   22:40   0.00   45.8    41    0.7   127     2.5   797.8    0.00 
 123   22:50   0.00   46.2    41    1.1   130     3.6   797.8    0.00 
 123   23:00   0.00   46.6    44    1.2   217     4.4   797.8    0.00 
 123   23:10   0.00   46.0    45    0.1   192     0.8   797.9    0.00 
 123   23:20   0.00   46.4    45    3.0   212     8.4   797.9    0.00 
 123   23:30   0.00   47.6    42    3.4   222     7.1   797.9    0.00 
 123   23:40   0.00   47.4    43    4.3   126     7.2   797.9    0.00 
 123   23:50   0.00   49.1    40    4.9   101     6.6   798.0    0.00 
 124    0:00   0.00   50.0    39    4.7    99     7.0   798.0    0.00 
 124    0:10   0.00   51.0    38    4.7   129    10.7   798.0    0.00 
 124    0:20   0.00   51.2    39    7.5   132    11.0   797.9    0.00 
 124    0:30   0.00   51.5    40    7.1   147    12.1   797.9    0.00 
 124    0:40   0.00   52.0    40    9.0   149    13.6   797.9    0.00 
 124    0:50   0.00   51.8    41   11.1   155    16.0   797.9    0.00 
 124    1:00   0.00   51.2    44   10.4   163    15.5   797.9    0.00 
 124    1:10   0.00   51.1    44    8.9   167    12.0   797.9    0.00 
 124    1:20   0.00   50.5    47    7.5   177    10.5   797.9    0.00 
 124    1:30   0.00   50.5    46    7.2   174    11.3   797.8    0.00 
 124    1:40   0.00   50.4    46    4.8   160     6.0   797.7    0.00 

Return to Steptoe Valley WMA graphs page.


Western Regional Climate Center,wrcc@dri.edu